sensor_id;sensor_type;location;lat;lon;timestamp;pressure;altitude;pressure_sealevel;temperature;humidity
14117;BME280;7137;51.436;6.544;2023-04-19T00:00:43;102239.38;;;11.69;78.61
14117;BME280;7137;51.436;6.544;2023-04-19T00:03:46;102241.94;;;11.72;78.33
14117;BME280;7137;51.436;6.544;2023-04-19T00:06:47;102238.47;;;11.67;78.71
14117;BME280;7137;51.436;6.544;2023-04-19T00:09:51;102232.34;;;11.73;79.05
14117;BME280;7137;51.436;6.544;2023-04-19T00:12:52;102233.13;;;11.78;77.82
14117;BME280;7137;51.436;6.544;2023-04-19T00:15:54;102226.31;;;11.63;79.82
14117;BME280;7137;51.436;6.544;2023-04-19T00:18:57;102227.31;;;11.54;79.78
14117;BME280;7137;51.436;6.544;2023-04-19T00:21:58;102230.78;;;11.55;79.72
14117;BME280;7137;51.436;6.544;2023-04-19T00:25:00;102217.75;;;11.50;80.06
14117;BME280;7137;51.436;6.544;2023-04-19T00:28:02;102220.34;;;11.52;79.97
14117;BME280;7137;51.436;6.544;2023-04-19T00:31:04;102221.19;;;11.55;80.45
14117;BME280;7137;51.436;6.544;2023-04-19T00:34:07;102221.19;;;11.52;80.37
14117;BME280;7137;51.436;6.544;2023-04-19T00:37:09;102221.25;;;11.49;80.44
14117;BME280;7137;51.436;6.544;2023-04-19T00:40:11;102224.78;;;11.45;81.43
14117;BME280;7137;51.436;6.544;2023-04-19T00:43:16;102225.66;;;11.46;81.13
14117;BME280;7137;51.436;6.544;2023-04-19T00:46:19;102222.16;;;11.47;81.06
14117;BME280;7137;51.436;6.544;2023-04-19T00:49:22;102213.34;;;11.55;81.38
14117;BME280;7137;51.436;6.544;2023-04-19T00:52:24;102224.66;;;11.57;81.99
14117;BME280;7137;51.436;6.544;2023-04-19T00:55:26;102218.56;;;11.57;81.69
14117;BME280;7137;51.436;6.544;2023-04-19T00:58:28;102218.53;;;11.58;81.95
14117;BME280;7137;51.436;6.544;2023-04-19T01:01:30;102218.50;;;11.62;82.33
14117;BME280;7137;51.436;6.544;2023-04-19T01:04:34;102212.47;;;11.53;83.21
14117;BME280;7137;51.436;6.544;2023-04-19T01:07:36;102210.63;;;11.63;82.69
14117;BME280;7137;51.436;6.544;2023-04-19T01:10:37;102210.56;;;11.68;83.06
14117;BME280;7137;51.436;6.544;2023-04-19T01:13:39;102211.41;;;11.71;82.82
14117;BME280;7137;51.436;6.544;2023-04-19T01:16:40;102220.16;;;11.69;83.32
14117;BME280;7137;51.436;6.544;2023-04-19T01:19:44;102214.91;;;11.70;83.22
14117;BME280;7137;51.436;6.544;2023-04-19T01:22:47;102206.13;;;11.74;83.11
14117;BME280;7137;51.436;6.544;2023-04-19T01:25:48;102211.34;;;11.79;83.23
14117;BME280;7137;51.436;6.544;2023-04-19T01:28:50;102205.22;;;11.77;83.72
14117;BME280;7137;51.436;6.544;2023-04-19T01:31:52;102206.97;;;11.76;82.88
14117;BME280;7137;51.436;6.544;2023-04-19T01:34:53;102200.91;;;11.73;84.45
14117;BME280;7137;51.436;6.544;2023-04-19T01:37:56;102194.78;;;11.75;82.70
14117;BME280;7137;51.436;6.544;2023-04-19T01:40:58;102206.09;;;11.79;83.25
14117;BME280;7137;51.436;6.544;2023-04-19T01:43:59;102200.00;;;11.75;83.13
14117;BME280;7137;51.436;6.544;2023-04-19T01:47:01;102199.97;;;11.77;83.51
14117;BME280;7137;51.436;6.544;2023-04-19T01:50:03;102200.03;;;11.74;83.53
14117;BME280;7137;51.436;6.544;2023-04-19T01:53:06;102199.97;;;11.77;82.73
14117;BME280;7137;51.436;6.544;2023-04-19T01:56:08;102201.81;;;11.72;82.87
14117;BME280;7137;51.436;6.544;2023-04-19T01:59:09;102195.63;;;11.76;83.31
14117;BME280;7137;51.436;6.544;2023-04-19T02:02:11;102194.78;;;11.75;82.78
14117;BME280;7137;51.436;6.544;2023-04-19T02:05:12;102194.78;;;11.75;82.20
14117;BME280;7137;51.436;6.544;2023-04-19T02:08:15;102195.63;;;11.79;81.92
14117;BME280;7137;51.436;6.544;2023-04-19T02:11:17;102191.25;;;11.78;83.02
14117;BME280;7137;51.436;6.544;2023-04-19T02:14:18;102189.53;;;11.75;82.99
14117;BME280;7137;51.436;6.544;2023-04-19T02:17:20;102187.78;;;11.76;82.79
14117;BME280;7137;51.436;6.544;2023-04-19T02:20:21;102185.16;;;11.77;81.62
14117;BME280;7137;51.436;6.544;2023-04-19T02:23:25;102183.56;;;11.64;82.05
14117;BME280;7137;51.436;6.544;2023-04-19T02:26:26;102183.56;;;11.64;82.19
14117;BME280;7137;51.436;6.544;2023-04-19T02:29:28;102189.63;;;11.68;82.30
14117;BME280;7137;51.436;6.544;2023-04-19T02:32:29;102187.00;;;11.68;82.24
14117;BME280;7137;51.436;6.544;2023-04-19T02:35:31;102193.13;;;11.65;82.08
14117;BME280;7137;51.436;6.544;2023-04-19T02:38:34;102186.25;;;11.59;81.94
14117;BME280;7137;51.436;6.544;2023-04-19T02:41:36;102187.22;;;11.49;82.63
14117;BME280;7137;51.436;6.544;2023-04-19T02:44:37;102186.41;;;11.46;82.81
14117;BME280;7137;51.436;6.544;2023-04-19T02:47:39;102184.75;;;11.37;82.66
14117;BME280;7137;51.436;6.544;2023-04-19T02:50:41;102187.44;;;11.31;82.36
14117;BME280;7137;51.436;6.544;2023-04-19T02:53:43;102186.59;;;11.27;82.76
14117;BME280;7137;51.436;6.544;2023-04-19T02:56:45;102183.22;;;11.18;83.11
14117;BME280;7137;51.436;6.544;2023-04-19T02:59:46;102191.06;;;11.18;83.32
14117;BME280;7137;51.436;6.544;2023-04-19T03:02:48;102189.38;;;11.14;83.66
14117;BME280;7137;51.436;6.544;2023-04-19T03:05:49;102187.66;;;11.08;83.32
14117;BME280;7137;51.436;6.544;2023-04-19T03:08:52;102187.78;;;10.94;83.99
14117;BME280;7137;51.436;6.544;2023-04-19T03:11:54;102177.41;;;10.88;84.06
14117;BME280;7137;51.436;6.544;2023-04-19T03:14:55;102174.84;;;10.81;85.01
14117;BME280;7137;51.436;6.544;2023-04-19T03:17:57;102170.50;;;10.80;84.46
14117;BME280;7137;51.436;6.544;2023-04-19T03:20:58;102168.84;;;10.73;85.23
14117;BME280;7137;51.436;6.544;2023-04-19T03:24:01;102166.13;;;10.80;85.10
14117;BME280;7137;51.436;6.544;2023-04-19T03:27:03;102165.31;;;10.75;84.90
14117;BME280;7137;51.436;6.544;2023-04-19T03:30:06;102157.47;;;10.75;85.97
14117;BME280;7137;51.436;6.544;2023-04-19T03:33:07;102166.03;;;10.92;84.53
14117;BME280;7137;51.436;6.544;2023-04-19T03:36:10;102158.28;;;10.85;85.54
14117;BME280;7137;51.436;6.544;2023-04-19T03:39:13;102164.28;;;10.91;85.16
14117;BME280;7137;51.436;6.544;2023-04-19T03:42:15;102161.59;;;10.97;84.75
14117;BME280;7137;51.436;6.544;2023-04-19T03:45:17;102153.66;;;11.08;84.22
14117;BME280;7137;51.436;6.544;2023-04-19T03:48:18;102161.47;;;11.11;84.54
14117;BME280;7137;51.436;6.544;2023-04-19T03:51:20;102158.72;;;11.26;82.94
14117;BME280;7137;51.436;6.544;2023-04-19T03:54:23;102160.53;;;11.18;83.65
14117;BME280;7137;51.436;6.544;2023-04-19T03:57:24;102167.28;;;11.41;82.12
14117;BME280;7137;51.436;6.544;2023-04-19T04:00:26;102159.44;;;11.41;82.26
14117;BME280;7137;51.436;6.544;2023-04-19T04:03:28;102156.03;;;11.33;82.05
14117;BME280;7137;51.436;6.544;2023-04-19T04:06:29;102162.00;;;11.44;81.14
14117;BME280;7137;51.436;6.544;2023-04-19T04:09:32;102161.16;;;11.43;80.23
14117;BME280;7137;51.436;6.544;2023-04-19T04:12:33;102165.75;;;11.20;80.86
14117;BME280;7137;51.436;6.544;2023-04-19T04:15:35;102156.38;;;11.00;80.75
14117;BME280;7137;51.436;6.544;2023-04-19T04:18:37;102152.91;;;10.95;80.41
14117;BME280;7137;51.436;6.544;2023-04-19T04:21:38;102151.16;;;11.00;79.65
14117;BME280;7137;51.436;6.544;2023-04-19T04:24:42;102148.59;;;10.93;78.99
14117;BME280;7137;51.436;6.544;2023-04-19T04:27:44;102145.13;;;10.91;78.61
14117;BME280;7137;51.436;6.544;2023-04-19T04:30:45;102155.59;;;10.91;78.43
14117;BME280;7137;51.436;6.544;2023-04-19T04:33:47;102153.00;;;10.88;78.12
14117;BME280;7137;51.436;6.544;2023-04-19T04:36:48;102153.16;;;10.69;77.12
14117;BME280;7137;51.436;6.544;2023-04-19T04:39:51;102161.06;;;10.62;76.34
14117;BME280;7137;51.436;6.544;2023-04-19T04:42:53;102161.13;;;10.54;77.00
14117;BME280;7137;51.436;6.544;2023-04-19T04:45:54;102163.81;;;10.45;78.02
14117;BME280;7137;51.436;6.544;2023-04-19T04:48:57;102160.41;;;10.34;78.08
14117;BME280;7137;51.436;6.544;2023-04-19T04:51:58;102163.09;;;10.22;79.37
14117;BME280;7137;51.436;6.544;2023-04-19T04:55:02;102164.84;;;10.18;79.93
14117;BME280;7137;51.436;6.544;2023-04-19T04:58:03;102160.53;;;10.16;78.53
14117;BME280;7137;51.436;6.544;2023-04-19T05:01:05;102159.59;;;10.24;77.05
14117;BME280;7137;51.436;6.544;2023-04-19T05:04:07;102163.94;;;10.27;77.37
14117;BME280;7137;51.436;6.544;2023-04-19T05:07:08;102160.47;;;10.28;77.49
14117;BME280;7137;51.436;6.544;2023-04-19T05:10:11;102163.09;;;10.20;75.96
14117;BME280;7137;51.436;6.544;2023-04-19T05:13:12;102164.81;;;10.24;75.54
14117;BME280;7137;51.436;6.544;2023-04-19T05:16:14;102159.59;;;10.29;74.46
14117;BME280;7137;51.436;6.544;2023-04-19T05:19:16;102164.75;;;10.35;73.59
14117;BME280;7137;51.436;6.544;2023-04-19T05:22:17;102171.69;;;10.39;73.51
14117;BME280;7137;51.436;6.544;2023-04-19T05:25:20;102163.88;;;10.36;73.34
14117;BME280;7137;51.436;6.544;2023-04-19T05:28:22;102176.06;;;10.37;73.59
14117;BME280;7137;51.436;6.544;2023-04-19T05:31:23;102169.94;;;10.39;73.17
14117;BME280;7137;51.436;6.544;2023-04-19T05:34:25;102174.31;;;10.37;73.08
14117;BME280;7137;51.436;6.544;2023-04-19T05:37:26;102177.78;;;10.39;73.14
14117;BME280;7137;51.436;6.544;2023-04-19T05:40:31;102174.28;;;10.44;71.65
14117;BME280;7137;51.436;6.544;2023-04-19T05:43:32;102178.66;;;10.37;71.83
14117;BME280;7137;51.436;6.544;2023-04-19T05:46:34;102167.34;;;10.39;72.33
14117;BME280;7137;51.436;6.544;2023-04-19T05:49:36;102169.09;;;10.36;71.04
14117;BME280;7137;51.436;6.544;2023-04-19T05:52:37;102177.78;;;10.43;70.26
14117;BME280;7137;51.436;6.544;2023-04-19T05:55:41;102175.16;;;10.44;70.93
14117;BME280;7137;51.436;6.544;2023-04-19T05:58:44;102176.94;;;10.36;70.55
14117;BME280;7137;51.436;6.544;2023-04-19T06:01:46;102165.53;;;10.48;70.18
14117;BME280;7137;51.436;6.544;2023-04-19T06:04:47;102189.91;;;10.48;69.53
14117;BME280;7137;51.436;6.544;2023-04-19T06:07:49;102172.44;;;10.53;67.39
14117;BME280;7137;51.436;6.544;2023-04-19T06:10:56;102185.50;;;10.59;67.13
14117;BME280;7137;51.436;6.544;2023-04-19T06:13:58;102180.97;;;10.78;66.36
14117;BME280;7137;51.436;6.544;2023-04-19T06:17:00;102188.66;;;10.98;65.56
14117;BME280;7137;51.436;6.544;2023-04-19T06:20:01;102187.56;;;11.19;63.25
14117;BME280;7137;51.436;6.544;2023-04-19T06:23:06;102190.69;;;11.51;61.13
14117;BME280;7137;51.436;6.544;2023-04-19T06:26:09;102186.47;;;12.69;56.30
14117;BME280;7137;51.436;6.544;2023-04-19T06:29:10;102188.28;;;13.61;54.49
14117;BME280;7137;51.436;6.544;2023-04-19T06:32:12;102192.66;;;16.07;47.27
14117;BME280;7137;51.436;6.544;2023-04-19T06:35:14;102191.09;;;14.34;50.13
14117;BME280;7137;51.436;6.544;2023-04-19T06:38:15;102189.41;;;15.67;46.97
14117;BME280;7137;51.436;6.544;2023-04-19T06:41:18;102192.00;;;15.69;45.70
14117;BME280;7137;51.436;6.544;2023-04-19T06:44:20;102184.53;;;16.41;44.50
14117;BME280;7137;51.436;6.544;2023-04-19T06:47:21;102190.34;;;15.66;43.84
14117;BME280;7137;51.436;6.544;2023-04-19T06:50:23;102198.56;;;15.85;43.97
14117;BME280;7137;51.436;6.544;2023-04-19T06:53:25;102189.00;;;16.39;42.96
14117;BME280;7137;51.436;6.544;2023-04-19T06:56:41;102181.72;;;16.19;41.13
14117;BME280;7137;51.436;6.544;2023-04-19T06:59:44;102187.78;;;15.31;42.33
14117;BME280;7137;51.436;6.544;2023-04-19T07:02:48;102189.22;;;15.73;43.02
14117;BME280;7137;51.436;6.544;2023-04-19T07:05:49;102189.69;;;15.26;43.90
14117;BME280;7137;51.436;6.544;2023-04-19T07:08:52;102183.91;;;15.75;43.74
14117;BME280;7137;51.436;6.544;2023-04-19T07:11:55;102198.84;;;17.63;39.12
14117;BME280;7137;51.436;6.544;2023-04-19T07:14:56;102184.44;;;19.23;36.78
14117;BME280;7137;51.436;6.544;2023-04-19T07:17:58;102178.81;;;17.07;40.06
14117;BME280;7137;51.436;6.544;2023-04-19T07:20:59;102187.94;;;16.44;40.08
14117;BME280;7137;51.436;6.544;2023-04-19T07:24:01;102192.69;;;17.62;38.44
14117;BME280;7137;51.436;6.544;2023-04-19T07:27:04;102179.56;;;17.36;40.19
14117;BME280;7137;51.436;6.544;2023-04-19T07:30:07;102188.56;;;18.02;37.30
14117;BME280;7137;51.436;6.544;2023-04-19T07:33:09;102181.38;;;18.27;38.40
14117;BME280;7137;51.436;6.544;2023-04-19T07:36:10;102174.13;;;21.19;33.73
14117;BME280;7137;51.436;6.544;2023-04-19T07:39:12;102180.63;;;19.88;35.23
14117;BME280;7137;51.436;6.544;2023-04-19T07:42:14;102173.59;;;20.78;32.92
14117;BME280;7137;51.436;6.544;2023-04-19T07:45:16;102169.41;;;20.19;34.85
14117;BME280;7137;51.436;6.544;2023-04-19T07:48:18;102176.09;;;20.64;34.86
14117;BME280;7137;51.436;6.544;2023-04-19T07:51:19;102171.28;;;20.17;34.99
14117;BME280;7137;51.436;6.544;2023-04-19T07:54:23;102169.09;;;19.89;33.88
14117;BME280;7137;51.436;6.544;2023-04-19T07:57:26;102166.31;;;20.47;33.87
14117;BME280;7137;51.436;6.544;2023-04-19T08:00:27;102179.56;;;19.53;33.38
14117;BME280;7137;51.436;6.544;2023-04-19T08:03:31;102168.28;;;18.24;36.00
14117;BME280;7137;51.436;6.544;2023-04-19T08:06:34;102168.25;;;17.07;37.28
14117;BME280;7137;51.436;6.544;2023-04-19T08:09:37;102169.78;;;16.88;38.63
14117;BME280;7137;51.436;6.544;2023-04-19T08:12:40;102166.09;;;18.56;35.21
14117;BME280;7137;51.436;6.544;2023-04-19T08:15:41;102170.75;;;16.85;37.28
14117;BME280;7137;51.436;6.544;2023-04-19T08:18:43;102168.50;;;15.61;38.09
14117;BME280;7137;51.436;6.544;2023-04-19T08:21:47;102168.66;;;15.86;39.46
14117;BME280;7137;51.436;6.544;2023-04-19T08:24:49;102160.53;;;16.22;37.88
14117;BME280;7137;51.436;6.544;2023-04-19T08:27:53;102163.56;;;16.64;35.20
14117;BME280;7137;51.436;6.544;2023-04-19T08:30:54;102160.97;;;16.89;36.07
14117;BME280;7137;51.436;6.544;2023-04-19T08:33:56;102159.97;;;19.76;31.74
14117;BME280;7137;51.436;6.544;2023-04-19T08:36:59;102153.72;;;17.20;35.59
14117;BME280;7137;51.436;6.544;2023-04-19T08:40:01;102156.06;;;17.76;34.76
14117;BME280;7137;51.436;6.544;2023-04-19T08:43:05;102163.53;;;18.96;34.24
14117;BME280;7137;51.436;6.544;2023-04-19T08:46:07;102152.91;;;18.34;32.79
14117;BME280;7137;51.436;6.544;2023-04-19T08:49:10;102162.34;;;17.72;33.90
14117;BME280;7137;51.436;6.544;2023-04-19T08:52:13;102156.56;;;17.63;33.68
14117;BME280;7137;51.436;6.544;2023-04-19T08:55:15;102159.16;;;16.91;34.28
14117;BME280;7137;51.436;6.544;2023-04-19T08:58:18;102151.59;;;15.98;37.19
14117;BME280;7137;51.436;6.544;2023-04-19T09:01:20;102156.53;;;16.37;34.40
14117;BME280;7137;51.436;6.544;2023-04-19T09:04:22;102152.56;;;16.23;36.19
14117;BME280;7137;51.436;6.544;2023-04-19T09:07:24;102151.19;;;16.12;35.04
14117;BME280;7137;51.436;6.544;2023-04-19T09:10:26;102143.31;;;16.10;36.14
14117;BME280;7137;51.436;6.544;2023-04-19T09:13:29;102140.25;;;16.24;36.51
14117;BME280;7137;51.436;6.544;2023-04-19T09:16:31;102138.81;;;15.86;36.02
14117;BME280;7137;51.436;6.544;2023-04-19T09:19:44;102145.31;;;15.43;37.51
14117;BME280;7137;51.436;6.544;2023-04-19T09:23:02;102138.03;;;15.82;37.48
14117;BME280;7137;51.436;6.544;2023-04-19T09:26:04;102140.00;;;16.03;36.15
14117;BME280;7137;51.436;6.544;2023-04-19T09:29:07;102147.72;;;17.15;33.26
14117;BME280;7137;51.436;6.544;2023-04-19T09:32:10;102147.47;;;16.17;34.37
14117;BME280;7137;51.436;6.544;2023-04-19T09:35:11;102136.22;;;15.84;35.01
14117;BME280;7137;51.436;6.544;2023-04-19T09:38:13;102140.59;;;15.54;34.06
14117;BME280;7137;51.436;6.544;2023-04-19T09:41:15;102139.22;;;14.76;36.16
14117;BME280;7137;51.436;6.544;2023-04-19T09:44:19;102121.13;;;15.89;34.99
14117;BME280;7137;51.436;6.544;2023-04-19T09:47:22;102125.66;;;16.40;34.26
14117;BME280;7137;51.436;6.544;2023-04-19T09:50:24;102125.84;;;17.12;31.89
14117;BME280;7137;51.436;6.544;2023-04-19T09:53:27;102126.78;;;15.77;33.05
14117;BME280;7137;51.436;6.544;2023-04-19T09:56:28;102134.03;;;15.07;32.69
14117;BME280;7137;51.436;6.544;2023-04-19T09:59:31;102124.47;;;15.03;32.51
14117;BME280;7137;51.436;6.544;2023-04-19T10:02:33;102135.78;;;15.39;32.26
14117;BME280;7137;51.436;6.544;2023-04-19T10:05:37;102121.38;;;15.20;33.93
14117;BME280;7137;51.436;6.544;2023-04-19T10:08:39;102129.66;;;15.06;34.26
14117;BME280;7137;51.436;6.544;2023-04-19T10:11:43;102127.56;;;15.81;32.30
14117;BME280;7137;51.436;6.544;2023-04-19T10:14:49;102129.53;;;15.72;31.02
14117;BME280;7137;51.436;6.544;2023-04-19T10:17:51;102124.28;;;15.41;31.54
14117;BME280;7137;51.436;6.544;2023-04-19T10:20:57;102119.19;;;15.04;31.34
14117;BME280;7137;51.436;6.544;2023-04-19T10:24:00;102124.63;;;14.98;32.92
14117;BME280;7137;51.436;6.544;2023-04-19T10:27:09;102123.38;;;14.45;34.58
14117;BME280;7137;51.436;6.544;2023-04-19T10:30:17;102112.75;;;14.83;32.40
14117;BME280;7137;51.436;6.544;2023-04-19T10:33:24;102109.59;;;14.69;33.72
14117;BME280;7137;51.436;6.544;2023-04-19T10:36:26;102123.38;;;14.45;31.65
14117;BME280;7137;51.436;6.544;2023-04-19T10:39:42;102111.78;;;14.53;31.83
14117;BME280;7137;51.436;6.544;2023-04-19T10:43:14;102096.09;;;14.83;32.01
14117;BME280;7137;51.436;6.544;2023-04-19T10:46:36;102100.13;;;14.62;33.64
14117;BME280;7137;51.436;6.544;2023-04-19T10:49:43;102101.19;;;14.89;34.23
14117;BME280;7137;51.436;6.544;2023-04-19T10:52:45;102093.56;;;14.80;32.51
14117;BME280;7137;51.436;6.544;2023-04-19T10:55:49;102086.28;;;14.55;31.42
14117;BME280;7137;51.436;6.544;2023-04-19T10:59:16;102079.19;;;14.23;31.75
14117;BME280;7137;51.436;6.544;2023-04-19T11:02:28;102093.06;;;14.29;31.85
14117;BME280;7137;51.436;6.544;2023-04-19T11:06:13;102086.56;;;14.09;33.21
14117;BME280;7137;51.436;6.544;2023-04-19T11:09:21;102083.47;;;14.27;32.95
14117;BME280;7137;51.436;6.544;2023-04-19T11:12:22;102086.69;;;14.39;33.72
14117;BME280;7137;51.436;6.544;2023-04-19T11:15:24;102079.53;;;14.45;33.33
14117;BME280;7137;51.436;6.544;2023-04-19T11:18:30;102067.28;;;14.44;34.48
14117;BME280;7137;51.436;6.544;2023-04-19T11:21:31;102066.44;;;14.78;35.00
14117;BME280;7137;51.436;6.544;2023-04-19T11:24:34;102069.44;;;14.63;34.69
14117;BME280;7137;51.436;6.544;2023-04-19T11:27:35;102065.97;;;14.95;33.12
14117;BME280;7137;51.436;6.544;2023-04-19T11:30:37;102064.25;;;15.23;34.13
14117;BME280;7137;51.436;6.544;2023-04-19T11:33:42;102054.25;;;14.74;32.64
14117;BME280;7137;51.436;6.544;2023-04-19T11:36:48;102053.47;;;15.01;31.63
14117;BME280;7137;51.436;6.544;2023-04-19T11:39:50;102039.72;;;14.25;32.10
14117;BME280;7137;51.436;6.544;2023-04-19T11:42:53;102042.63;;;14.50;32.23
14117;BME280;7137;51.436;6.544;2023-04-19T11:46:03;102045.59;;;14.36;31.89
14117;BME280;7137;51.436;6.544;2023-04-19T11:49:06;102040.63;;;13.88;32.95
14117;BME280;7137;51.436;6.544;2023-04-19T11:52:08;102040.16;;;14.07;31.78
14117;BME280;7137;51.436;6.544;2023-04-19T11:55:19;102030.16;;;13.87;33.36
14117;BME280;7137;51.436;6.544;2023-04-19T11:58:28;102021.38;;;14.23;32.91
14117;BME280;7137;51.436;6.544;2023-04-19T12:01:32;102010.19;;;14.15;32.09
14117;BME280;7137;51.436;6.544;2023-04-19T12:04:36;102040.94;;;14.12;31.85
14117;BME280;7137;51.436;6.544;2023-04-19T12:07:57;102006.81;;;14.10;31.21
14117;BME280;7137;51.436;6.544;2023-04-19T12:10:58;102018.56;;;14.30;31.32
14117;BME280;7137;51.436;6.544;2023-04-19T12:14:07;102012.00;;;14.13;29.11
14117;BME280;7137;51.436;6.544;2023-04-19T12:17:10;102006.03;;;14.05;31.07
14117;BME280;7137;51.436;6.544;2023-04-19T12:20:27;102009.13;;;14.22;31.09
14117;BME280;7137;51.436;6.544;2023-04-19T12:23:29;102009.31;;;14.49;31.17
14117;BME280;7137;51.436;6.544;2023-04-19T12:26:30;102004.41;;;14.35;31.69
14117;BME280;7137;51.436;6.544;2023-04-19T12:29:32;101986.28;;;14.59;31.75
14117;BME280;7137;51.436;6.544;2023-04-19T12:32:34;101989.63;;;14.64;32.03
14117;BME280;7137;51.436;6.544;2023-04-19T12:35:37;101974.75;;;14.63;31.16
14117;BME280;7137;51.436;6.544;2023-04-19T12:38:39;101972.56;;;14.47;30.75
14117;BME280;7137;51.436;6.544;2023-04-19T12:41:40;101971.06;;;14.70;32.40
14117;BME280;7137;51.436;6.544;2023-04-19T12:44:42;101970.72;;;14.82;31.75
14117;BME280;7137;51.436;6.544;2023-04-19T12:47:45;101971.69;;;14.79;31.59
14117;BME280;7137;51.436;6.544;2023-04-19T12:50:48;101963.34;;;14.95;33.20
14117;BME280;7137;51.436;6.544;2023-04-19T12:53:49;101960.50;;;15.01;31.73
14117;BME280;7137;51.436;6.544;2023-04-19T12:56:52;101966.28;;;14.84;29.52
14117;BME280;7137;51.436;6.544;2023-04-19T12:59:55;101956.72;;;14.81;30.95
14117;BME280;7137;51.436;6.544;2023-04-19T13:02:57;101968.69;;;14.61;30.72
14117;BME280;7137;51.436;6.544;2023-04-19T13:06:00;101948.00;;;14.79;31.42
14117;BME280;7137;51.436;6.544;2023-04-19T13:09:02;101948.47;;;14.94;31.73
14117;BME280;7137;51.436;6.544;2023-04-19T13:12:04;101946.94;;;14.85;31.28
14117;BME280;7137;51.436;6.544;2023-04-19T13:15:07;101930.19;;;15.17;32.46
14117;BME280;7137;51.436;6.544;2023-04-19T13:18:09;101939.28;;;15.35;31.28
14117;BME280;7137;51.436;6.544;2023-04-19T13:21:12;101946.50;;;15.28;31.03
14117;BME280;7137;51.436;6.544;2023-04-19T13:24:14;101932.81;;;15.17;31.09
14117;BME280;7137;51.436;6.544;2023-04-19T13:27:15;101925.06;;;15.12;31.07
14117;BME280;7137;51.436;6.544;2023-04-19T13:30:17;101925.78;;;15.18;31.97
14117;BME280;7137;51.436;6.544;2023-04-19T13:33:18;101919.06;;;14.79;31.26
14117;BME280;7137;51.436;6.544;2023-04-19T13:36:21;101915.63;;;15.05;32.32
14117;BME280;7137;51.436;6.544;2023-04-19T13:39:23;101911.53;;;14.97;31.69
14117;BME280;7137;51.436;6.544;2023-04-19T13:42:24;101906.97;;;15.30;32.48
14117;BME280;7137;51.436;6.544;2023-04-19T13:45:28;101901.59;;;15.05;32.74
14117;BME280;7137;51.436;6.544;2023-04-19T13:48:29;101902.66;;;14.99;33.55
14117;BME280;7137;51.436;6.544;2023-04-19T13:51:32;101900.91;;;15.00;34.69
14117;BME280;7137;51.436;6.544;2023-04-19T13:54:34;101895.19;;;14.85;34.38
14117;BME280;7137;51.436;6.544;2023-04-19T13:57:36;101891.72;;;15.13;32.66
14117;BME280;7137;51.436;6.544;2023-04-19T14:00:37;101888.53;;;15.02;33.11
14117;BME280;7137;51.436;6.544;2023-04-19T14:03:39;101886.66;;;15.05;34.56
14117;BME280;7137;51.436;6.544;2023-04-19T14:06:42;101869.97;;;15.34;33.92
14117;BME280;7137;51.436;6.544;2023-04-19T14:09:43;101870.34;;;15.50;33.62
14117;BME280;7137;51.436;6.544;2023-04-19T14:12:45;101865.31;;;15.69;34.39
14117;BME280;7137;51.436;6.544;2023-04-19T14:15:48;101862.56;;;15.45;32.77
14117;BME280;7137;51.436;6.544;2023-04-19T14:18:50;101857.84;;;15.55;33.65
14117;BME280;7137;51.436;6.544;2023-04-19T14:21:54;101861.97;;;15.37;33.71
14117;BME280;7137;51.436;6.544;2023-04-19T14:24:55;101849.44;;;15.18;32.63
14117;BME280;7137;51.436;6.544;2023-04-19T14:27:57;101869.66;;;15.43;32.71
14117;BME280;7137;51.436;6.544;2023-04-19T14:30:59;101844.22;;;15.16;33.38
14117;BME280;7137;51.436;6.544;2023-04-19T14:34:00;101833.13;;;15.33;32.70
14117;BME280;7137;51.436;6.544;2023-04-19T14:37:03;101834.22;;;15.54;32.58
14117;BME280;7137;51.436;6.544;2023-04-19T14:40:06;101833.66;;;15.44;32.13
14117;BME280;7137;51.436;6.544;2023-04-19T14:43:10;101840.41;;;15.53;32.90
14117;BME280;7137;51.436;6.544;2023-04-19T14:46:11;101836.34;;;15.42;31.90
14117;BME280;7137;51.436;6.544;2023-04-19T14:49:13;101839.44;;;15.29;32.31
14117;BME280;7137;51.436;6.544;2023-04-19T14:52:16;101829.19;;;15.20;33.81
14117;BME280;7137;51.436;6.544;2023-04-19T14:55:18;101821.34;;;15.18;32.73
14117;BME280;7137;51.436;6.544;2023-04-19T14:58:19;101812.97;;;15.58;33.09
14117;BME280;7137;51.436;6.544;2023-04-19T15:01:21;101815.09;;;15.49;32.65
14117;BME280;7137;51.436;6.544;2023-04-19T15:04:22;101811.31;;;15.29;32.66
14117;BME280;7137;51.436;6.544;2023-04-19T15:07:25;101800.84;;;15.54;33.97
14117;BME280;7137;51.436;6.544;2023-04-19T15:10:27;101789.25;;;15.33;32.56
14117;BME280;7137;51.436;6.544;2023-04-19T15:13:29;101798.66;;;15.40;31.61
14117;BME280;7137;51.436;6.544;2023-04-19T15:16:30;101783.97;;;15.33;30.52
14117;BME280;7137;51.436;6.544;2023-04-19T15:19:32;101804.75;;;15.42;31.97
14117;BME280;7137;51.436;6.544;2023-04-19T15:22:35;101790.66;;;15.17;32.05
14117;BME280;7137;51.436;6.544;2023-04-19T15:25:36;101781.34;;;15.33;32.58
14117;BME280;7137;51.436;6.544;2023-04-19T15:28:38;101791.13;;;15.30;32.23
14117;BME280;7137;51.436;6.544;2023-04-19T15:31:40;101777.50;;;15.43;31.98
14117;BME280;7137;51.436;6.544;2023-04-19T15:34:41;101774.59;;;15.51;32.43
14117;BME280;7137;51.436;6.544;2023-04-19T15:37:46;101775.03;;;15.39;33.02
14117;BME280;7137;51.436;6.544;2023-04-19T15:40:47;101787.53;;;15.06;32.64
14117;BME280;7137;51.436;6.544;2023-04-19T15:43:49;101783.81;;;15.13;33.36
14117;BME280;7137;51.436;6.544;2023-04-19T15:46:50;101779.00;;;15.26;33.17
14117;BME280;7137;51.436;6.544;2023-04-19T15:49:52;101783.22;;;15.30;32.70
14117;BME280;7137;51.436;6.544;2023-04-19T15:52:55;101777.03;;;15.31;32.41
14117;BME280;7137;51.436;6.544;2023-04-19T15:55:57;101780.53;;;15.31;32.06
14117;BME280;7137;51.436;6.544;2023-04-19T15:58:58;101777.28;;;15.25;31.88
14117;BME280;7137;51.436;6.544;2023-04-19T16:02:00;101769.38;;;15.25;31.75
14117;BME280;7137;51.436;6.544;2023-04-19T16:05:02;101765.78;;;15.52;31.77
14117;BME280;7137;51.436;6.544;2023-04-19T16:08:07;101771.59;;;15.37;31.69